createdAt,value
2019-04-30T00:03:50.455Z,5.90
2019-04-30T00:09:20.138Z,5.80
2019-04-30T00:14:49.433Z,5.80
2019-04-30T00:20:18.767Z,5.80
2019-04-30T00:25:48.078Z,5.80
2019-04-30T00:31:23.596Z,5.80
2019-04-30T00:36:48.457Z,5.70
2019-04-30T00:42:23.968Z,5.70
2019-04-30T00:47:48.971Z,5.80
2019-04-30T00:53:18.645Z,5.80
2019-04-30T00:58:47.959Z,5.80
2019-04-30T01:04:24.643Z,5.80
2019-04-30T01:09:55.216Z,5.80
2019-04-30T01:15:24.763Z,5.90
2019-04-30T01:20:54.439Z,5.80
2019-04-30T01:26:27.682Z,5.90
2019-04-30T01:31:55.204Z,5.90
2019-04-30T01:37:28.802Z,5.90
2019-04-30T01:42:55.738Z,5.90
2019-04-30T01:48:25.325Z,5.90
2019-04-30T01:53:54.778Z,5.90
2019-04-30T01:59:29.196Z,5.90
2019-04-30T02:04:59.212Z,5.90
2019-04-30T02:10:29.157Z,5.90
2019-04-30T02:15:59.269Z,5.90
2019-04-30T02:21:30.052Z,5.90
2019-04-30T02:26:59.823Z,5.90
2019-04-30T02:32:30.519Z,5.90
2019-04-30T02:38:13.787Z,5.90
2019-04-30T02:43:43.596Z,5.90
2019-04-30T02:49:13.832Z,5.80
2019-04-30T02:54:46.079Z,5.90
2019-04-30T03:00:20.256Z,5.90
2019-04-30T03:05:49.743Z,5.90
2019-04-30T03:11:20.717Z,5.90
2019-04-30T03:16:54.818Z,5.90
2019-04-30T03:22:30.144Z,5.90
2019-04-30T03:28:00.369Z,5.90
2019-04-30T03:33:32.807Z,5.90
2019-04-30T03:39:00.813Z,5.90
2019-04-30T03:44:32.347Z,5.90
2019-04-30T03:50:01.322Z,5.90
2019-04-30T03:55:30.638Z,5.90
2019-04-30T04:01:01.692Z,5.90
2019-04-30T04:06:32.815Z,5.90
2019-04-30T04:12:20.728Z,5.90
2019-04-30T04:17:55.165Z,5.90
2019-04-30T04:23:24.562Z,6.00
2019-04-30T04:28:53.932Z,6.00
2019-04-30T04:34:24.515Z,6.00
2019-04-30T04:39:54.006Z,6.00
2019-04-30T04:45:24.005Z,6.00
2019-04-30T04:50:53.392Z,6.10
2019-04-30T04:56:22.842Z,6.10
2019-04-30T05:01:52.362Z,6.10
2019-04-30T05:07:21.749Z,6.10
2019-04-30T05:12:51.161Z,6.10
2019-04-30T05:18:22.662Z,6.10
2019-04-30T05:23:51.590Z,6.20
2019-04-30T05:29:20.937Z,6.20
2019-04-30T05:34:50.275Z,6.20
2019-04-30T05:40:19.724Z,6.20
2019-04-30T05:45:49.374Z,6.20
2019-04-30T05:51:21.129Z,6.20
2019-04-30T05:56:49.853Z,6.30
2019-04-30T06:02:19.607Z,6.20
2019-04-30T06:07:51.900Z,6.20
2019-04-30T06:13:21.954Z,6.20
2019-04-30T06:18:51.328Z,6.20
2019-04-30T06:24:20.640Z,6.20
2019-04-30T06:29:50.113Z,6.30
2019-04-30T06:35:19.589Z,6.30
2019-04-30T06:40:49.029Z,6.30
2019-04-30T06:46:18.761Z,6.30
2019-04-30T06:51:49.338Z,6.30
2019-04-30T06:57:19.914Z,6.20
2019-04-30T07:02:49.575Z,6.30
2019-04-30T07:08:40.461Z,6.30
2019-04-30T07:14:09.649Z,6.30
2019-04-30T07:19:53.162Z,6.40
2019-04-30T07:25:10.901Z,6.40
2019-04-30T07:30:40.367Z,6.40
2019-04-30T07:36:09.889Z,6.40
2019-04-30T07:41:40.249Z,6.50
2019-04-30T07:47:09.937Z,6.60
2019-04-30T07:52:58.066Z,6.60
2019-04-30T07:58:10.436Z,6.60
2019-04-30T08:03:56.399Z,6.70
2019-04-30T08:09:25.713Z,6.60
2019-04-30T08:14:55.031Z,6.70
2019-04-30T08:20:24.340Z,6.70
2019-04-30T08:25:53.675Z,6.70
2019-04-30T08:31:23.016Z,6.70
2019-04-30T08:36:53.335Z,6.70
2019-04-30T08:42:31.756Z,6.70
2019-04-30T08:47:53.905Z,6.80
2019-04-30T08:53:29.753Z,6.80
2019-04-30T08:58:54.923Z,6.90
2019-04-30T09:04:25.958Z,7.00
2019-04-30T09:09:55.276Z,7.00
2019-04-30T09:15:24.583Z,7.10
2019-04-30T09:20:53.925Z,7.20
2019-04-30T09:26:23.522Z,7.20
2019-04-30T09:31:52.893Z,7.30
2019-04-30T09:37:22.194Z,7.40
2019-04-30T09:42:51.522Z,7.50
2019-04-30T09:48:20.961Z,7.50
2019-04-30T09:53:58.806Z,7.50
2019-04-30T09:59:21.333Z,7.60
2019-04-30T10:04:51.032Z,7.80
2019-04-30T10:10:22.399Z,7.90
2019-04-30T10:15:54.954Z,8.30
2019-04-30T10:21:24.435Z,8.70
2019-04-30T10:26:53.762Z,8.90
2019-04-30T10:32:23.134Z,9.00
2019-04-30T10:37:54.863Z,9.40
2019-04-30T10:43:24.230Z,9.90
2019-04-30T10:48:53.581Z,9.90
2019-04-30T10:54:26.297Z,10.10
2019-04-30T10:59:54.126Z,10.30
2019-04-30T11:05:23.583Z,10.60
2019-04-30T11:10:52.983Z,10.90
2019-04-30T11:16:22.356Z,11.20
2019-04-30T11:21:51.959Z,11.40
2019-04-30T11:27:22.199Z,11.40
2019-04-30T11:32:52.182Z,11.70
2019-04-30T11:38:21.869Z,11.90
2019-04-30T11:43:51.342Z,11.70
2019-04-30T11:49:20.718Z,11.00
2019-04-30T11:54:54.127Z,10.60
2019-04-30T12:00:24.838Z,10.70
2019-04-30T12:05:54.314Z,11.70
2019-04-30T12:11:34.687Z,11.90
2019-04-30T12:17:04.119Z,11.70
2019-04-30T12:22:33.433Z,11.90
2019-04-30T12:28:02.764Z,12.00
2019-04-30T12:33:32.167Z,12.10
2019-04-30T12:39:01.576Z,12.40
2019-04-30T12:44:31.036Z,12.60
2019-04-30T12:50:19.502Z,12.50
2019-04-30T12:56:08.843Z,12.40
2019-04-30T13:01:39.960Z,12.30
2019-04-30T13:07:10.346Z,12.30
2019-04-30T13:12:41.112Z,12.60
2019-04-30T13:18:10.739Z,12.90
2019-04-30T13:23:40.602Z,12.90
2019-04-30T13:29:11.729Z,12.90
2019-04-30T13:34:45.457Z,13.20
2019-04-30T13:40:20.421Z,13.30
2019-04-30T13:45:51.836Z,13.40
2019-04-30T13:51:20.803Z,13.60
2019-04-30T13:56:50.303Z,13.60
2019-04-30T14:02:21.468Z,13.30
2019-04-30T14:07:55.478Z,13.20
2019-04-30T14:13:26.765Z,13.00
2019-04-30T14:18:56.225Z,13.30
2019-04-30T14:24:25.730Z,13.40
2019-04-30T14:29:55.141Z,13.40
2019-04-30T14:35:24.733Z,13.50
2019-04-30T14:40:54.554Z,13.50
2019-04-30T14:46:39.650Z,13.40
2019-04-30T14:52:12.265Z,13.10
2019-04-30T14:57:51.115Z,12.80
2019-04-30T15:03:21.898Z,12.60
2019-04-30T15:08:51.625Z,12.60
2019-04-30T15:14:20.926Z,12.50
2019-04-30T15:19:54.154Z,12.50
2019-04-30T15:25:22.323Z,12.50
2019-04-30T15:30:52.215Z,12.50
2019-04-30T15:36:21.643Z,12.50
2019-04-30T15:41:51.218Z,12.40
2019-04-30T15:47:22.407Z,12.40
2019-04-30T15:52:51.755Z,12.40
2019-04-30T15:58:22.777Z,12.30
2019-04-30T16:03:53.978Z,12.20
2019-04-30T16:09:34.235Z,12.10
2019-04-30T16:15:03.956Z,12.00
2019-04-30T16:20:33.519Z,12.00
2019-04-30T16:26:03.962Z,11.90
2019-04-30T16:31:35.307Z,11.90
2019-04-30T16:37:05.114Z,11.80
2019-04-30T16:42:34.786Z,11.80
2019-04-30T16:48:05.445Z,11.80
2019-04-30T16:53:34.926Z,11.70
2019-04-30T16:59:09.090Z,11.80
2019-04-30T17:04:40.277Z,11.70
2019-04-30T17:10:20.803Z,11.80
2019-04-30T17:15:52.227Z,11.80
2019-04-30T17:21:21.869Z,11.70
2019-04-30T17:26:51.552Z,11.70
2019-04-30T17:32:21.396Z,11.70
2019-04-30T17:37:50.872Z,11.60
2019-04-30T17:43:20.225Z,11.60
2019-04-30T17:48:49.993Z,11.50
2019-04-30T17:54:19.734Z,11.40
2019-04-30T17:59:50.944Z,11.30
2019-04-30T18:05:21.150Z,11.20
2019-04-30T18:10:50.665Z,11.10
2019-04-30T18:16:20.089Z,11.00
2019-04-30T18:21:57.268Z,10.90
2019-04-30T18:27:42.379Z,10.70
2019-04-30T18:33:03.586Z,10.60
2019-04-30T18:38:33.191Z,10.50
2019-04-30T18:44:02.984Z,10.40
2019-04-30T18:49:32.640Z,10.30
2019-04-30T18:55:02.154Z,10.20
2019-04-30T19:00:45.074Z,10.10
2019-04-30T19:06:25.909Z,10.10
2019-04-30T19:12:01.101Z,10.10
2019-04-30T19:17:39.370Z,10.00
2019-04-30T19:23:10.216Z,10.00
2019-04-30T19:28:43.885Z,10.00
2019-04-30T19:34:13.685Z,10.00
2019-04-30T19:39:43.351Z,10.00
2019-04-30T19:45:13.372Z,10.00
2019-04-30T19:50:43.316Z,10.00
2019-04-30T19:56:12.717Z,9.90
2019-04-30T20:01:42.603Z,9.90
2019-04-30T20:07:12.555Z,9.90
2019-04-30T20:12:41.887Z,9.90
2019-04-30T20:18:11.476Z,9.90
2019-04-30T20:23:41.090Z,9.90
2019-04-30T20:29:12.691Z,9.90
2019-04-30T20:34:42.134Z,9.90
2019-04-30T20:40:15.705Z,9.90
2019-04-30T20:45:45.067Z,9.90
2019-04-30T20:51:14.452Z,9.90
2019-04-30T20:56:43.825Z,9.80
2019-04-30T21:02:13.187Z,9.80
2019-04-30T21:07:42.553Z,9.80
2019-04-30T21:13:11.953Z,9.80
2019-04-30T21:18:41.403Z,9.80
2019-04-30T21:24:11.078Z,9.80
2019-04-30T21:29:40.467Z,9.80
2019-04-30T21:35:26.721Z,9.70
2019-04-30T21:41:00.919Z,9.70
2019-04-30T21:46:29.442Z,9.70
2019-04-30T21:51:58.884Z,9.60
2019-04-30T21:57:28.287Z,9.60
2019-04-30T22:02:59.805Z,9.60
2019-04-30T22:08:29.012Z,9.50
2019-04-30T22:13:59.443Z,9.50
2019-04-30T22:19:30.004Z,9.50
2019-04-30T22:24:59.753Z,9.50
2019-04-30T22:30:29.523Z,9.40
2019-04-30T22:36:10.922Z,9.40
2019-04-30T22:41:41.407Z,9.40
2019-04-30T22:47:10.794Z,9.40
2019-04-30T22:52:40.174Z,9.30
2019-04-30T22:58:09.740Z,9.20
2019-04-30T23:03:39.296Z,9.10
2019-04-30T23:09:12.175Z,9.10
2019-04-30T23:14:41.631Z,9.00
2019-04-30T23:20:11.813Z,8.90
2019-04-30T23:25:41.236Z,8.80
2019-04-30T23:31:10.582Z,8.70
2019-04-30T23:36:39.903Z,8.60
2019-04-30T23:42:09.323Z,8.50
2019-04-30T23:47:39.699Z,8.40
2019-04-30T23:53:09.119Z,8.30
2019-04-30T23:58:38.527Z,8.20
